createdAt,value
2022-12-05T00:02:00.306Z,100707.28
2022-12-05T00:04:28.497Z,100687.78
2022-12-05T00:06:58.308Z,100665.41
2022-12-05T00:09:26.315Z,100691.38
2022-12-05T00:11:54.811Z,100706.00
2022-12-05T00:14:23.004Z,100682.13
2022-12-05T00:16:51.221Z,100706.63
2022-12-05T00:19:20.280Z,100678.91
2022-12-05T00:21:48.267Z,100715.34
2022-12-05T00:24:18.601Z,100716.81
2022-12-05T00:26:46.710Z,100716.81
2022-12-05T00:29:14.860Z,100676.28
2022-12-05T00:31:43.644Z,100722.06
2022-12-05T00:34:11.987Z,100722.22
2022-12-05T00:36:40.940Z,100695.78
2022-12-05T00:39:11.646Z,100673.44
2022-12-05T00:41:41.717Z,100690.72
2022-12-05T00:44:11.714Z,100676.59
2022-12-05T00:46:40.332Z,100708.91
2022-12-05T00:49:12.534Z,100683.09
2022-12-05T00:51:42.467Z,100711.03
2022-12-05T00:54:12.343Z,100670.94
2022-12-05T00:56:42.609Z,100672.97
2022-12-05T00:59:15.705Z,100692.66
2022-12-05T01:01:46.061Z,100703.69
2022-12-05T01:04:16.998Z,100732.22
2022-12-05T01:06:45.274Z,100720.63
2022-12-05T01:09:15.987Z,100701.22
2022-12-05T01:11:45.815Z,100706.66
2022-12-05T01:14:15.528Z,100709.25
2022-12-05T01:16:47.069Z,100685.06
2022-12-05T01:19:17.773Z,100739.22
2022-12-05T01:21:47.412Z,100728.38
2022-12-05T01:24:15.921Z,100679.75
2022-12-05T01:26:46.551Z,100729.03
2022-12-05T01:29:17.268Z,100717.53
2022-12-05T01:31:46.557Z,100752.66
2022-12-05T01:34:16.978Z,100721.97
2022-12-05T01:36:45.666Z,100756.53
2022-12-05T01:39:14.745Z,100699.78
2022-12-05T01:41:47.308Z,100739.50
2022-12-05T01:44:53.000Z,100745.16
2022-12-05T01:47:23.578Z,100748.06
2022-12-05T01:49:52.040Z,100747.41
2022-12-05T01:52:23.619Z,100724.75
2022-12-05T01:54:56.345Z,100695.78
2022-12-05T01:57:27.509Z,100701.22
2022-12-05T02:00:05.967Z,100708.44
2022-12-05T02:02:34.782Z,100715.53
2022-12-05T02:05:07.409Z,100710.44
2022-12-05T02:07:39.191Z,100745.09
2022-12-05T02:10:09.235Z,100736.59
2022-12-05T02:12:39.883Z,100742.19
2022-12-05T02:15:19.627Z,100757.50
2022-12-05T02:17:55.529Z,100731.34
2022-12-05T02:20:37.593Z,100732.69
2022-12-05T02:23:44.234Z,100758.97
2022-12-05T02:26:53.828Z,100756.34
2022-12-05T02:29:58.649Z,100750.81
2022-12-05T02:32:38.393Z,100754.72
2022-12-05T02:35:17.922Z,100751.13
2022-12-05T02:37:55.944Z,100719.09
2022-12-05T02:40:29.763Z,100734.41
2022-12-05T02:43:04.020Z,100702.50
2022-12-05T02:45:38.479Z,100751.13
2022-12-05T02:48:07.550Z,100682.50
2022-12-05T02:50:39.042Z,100755.81
2022-12-05T02:53:12.588Z,100746.97
2022-12-05T02:55:43.161Z,100750.84
2022-12-05T02:58:17.742Z,100713.94
2022-12-05T03:00:50.963Z,100725.47
2022-12-05T03:03:22.902Z,100708.72
2022-12-05T03:05:57.174Z,100739.41
2022-12-05T03:08:31.485Z,100726.78
2022-12-05T03:11:03.081Z,100720.22
2022-12-05T03:13:37.845Z,100689.03
2022-12-05T03:16:13.131Z,100743.88
2022-12-05T03:18:46.327Z,100747.06
2022-12-05T03:21:24.259Z,100750.34
2022-12-05T03:23:57.566Z,100733.44
2022-12-05T03:26:37.902Z,100748.38
2022-12-05T03:29:21.683Z,100738.38
2022-12-05T03:31:59.554Z,100725.34
2022-12-05T03:34:39.394Z,100722.13
2022-12-05T03:37:14.283Z,100708.69
2022-12-05T03:39:50.571Z,100717.25
2022-12-05T03:42:28.953Z,100718.53
2022-12-05T03:45:01.863Z,100738.38
2022-12-05T03:47:40.255Z,100727.72
2022-12-05T03:50:14.262Z,100686.66
2022-12-05T03:53:17.878Z,100709.16
2022-12-05T03:55:40.554Z,100742.16
2022-12-05T03:58:12.092Z,100738.84
2022-12-05T04:00:44.688Z,100699.66
2022-12-05T04:03:19.901Z,100735.59
2022-12-05T04:05:50.206Z,100755.47
2022-12-05T04:08:24.137Z,100734.66
2022-12-05T04:10:55.218Z,100709.50
2022-12-05T04:13:30.577Z,100748.22
2022-12-05T04:16:21.245Z,100705.53
2022-12-05T04:18:59.458Z,100756.44
2022-12-05T04:21:40.975Z,100730.47
2022-12-05T04:24:32.363Z,100743.97
2022-12-05T04:27:10.842Z,100737.56
2022-12-05T04:29:46.212Z,100763.94
2022-12-05T04:32:16.107Z,100770.00
2022-12-05T04:34:51.984Z,100747.31
2022-12-05T04:37:26.828Z,100740.53
2022-12-05T04:40:00.610Z,100763.03
2022-12-05T04:42:32.444Z,100713.94
2022-12-05T04:45:05.400Z,100733.34
2022-12-05T04:47:38.909Z,100745.81
2022-12-05T04:50:12.465Z,100759.31
2022-12-05T04:52:41.858Z,100711.69
2022-12-05T04:55:13.517Z,100719.72
2022-12-05T04:57:46.788Z,100746.78
2022-12-05T05:00:15.897Z,100751.84
2022-12-05T05:02:49.262Z,100782.97
2022-12-05T05:05:22.018Z,100777.00
2022-12-05T05:07:53.100Z,100751.66
2022-12-05T05:10:27.490Z,100737.56
2022-12-05T05:12:56.909Z,100756.38
2022-12-05T05:15:25.196Z,100771.03
2022-12-05T05:17:53.173Z,100767.75
2022-12-05T05:20:25.985Z,100769.44
2022-12-05T05:22:55.866Z,100733.25
2022-12-05T05:25:24.615Z,100805.47
2022-12-05T05:27:54.579Z,100774.63
2022-12-05T05:30:25.378Z,100743.09
2022-12-05T05:32:53.696Z,100796.28
2022-12-05T05:35:23.678Z,100815.03
2022-12-05T05:37:52.488Z,100809.44
2022-12-05T05:40:20.731Z,100815.66
2022-12-05T05:42:51.066Z,100763.22
2022-12-05T05:45:19.191Z,100790.03
2022-12-05T05:47:49.498Z,100795.63
2022-12-05T05:50:21.664Z,100764.41
2022-12-05T05:52:52.065Z,100811.06
2022-12-05T05:55:22.911Z,100787.59
2022-12-05T05:57:51.246Z,100807.63
2022-12-05T06:00:20.231Z,100804.00
2022-12-05T06:02:49.223Z,100792.03
2022-12-05T06:05:18.160Z,100814.06
2022-12-05T06:07:46.286Z,100820.81
2022-12-05T06:10:16.421Z,100791.63
2022-12-05T06:12:45.690Z,100798.19
2022-12-05T06:15:14.416Z,100786.75
2022-12-05T06:17:42.874Z,100780.63
2022-12-05T06:20:12.863Z,100792.13
2022-12-05T06:22:40.974Z,100775.59
2022-12-05T06:25:11.289Z,100777.22
2022-12-05T06:27:40.647Z,100771.34
2022-12-05T06:30:10.679Z,100788.94
2022-12-05T06:32:38.898Z,100811.78
2022-12-05T06:35:15.808Z,100791.91
2022-12-05T06:37:44.891Z,100803.09
2022-12-05T06:40:13.560Z,100816.56
2022-12-05T06:42:43.684Z,100803.28
2022-12-05T06:45:14.222Z,100790.13
2022-12-05T06:47:42.858Z,100814.84
2022-12-05T06:50:13.126Z,100784.88
2022-12-05T06:52:41.537Z,100837.03
2022-12-05T06:55:11.609Z,100801.03
2022-12-05T06:57:40.008Z,100814.31
2022-12-05T07:00:29.288Z,100846.53
2022-12-05T07:02:57.684Z,100830.38
2022-12-05T07:05:25.890Z,100831.22
2022-12-05T07:07:54.722Z,100820.19
2022-12-05T07:13:06.042Z,100866.34
2022-12-05T07:15:37.214Z,100868.47
2022-12-05T07:18:07.964Z,100840.38
2022-12-05T07:21:03.851Z,100857.13
2022-12-05T07:23:27.717Z,100849.09
2022-12-05T07:25:57.886Z,100826.22
2022-12-05T07:28:27.494Z,100853.69
2022-12-05T07:31:03.729Z,100879.06
2022-12-05T07:33:34.758Z,100845.03
2022-12-05T07:36:05.554Z,100845.00
2022-12-05T07:38:36.244Z,100831.91
2022-12-05T07:41:13.096Z,100828.59
2022-12-05T07:43:45.830Z,100860.19
2022-12-05T07:46:23.950Z,100861.97
2022-12-05T07:48:54.516Z,100872.19
2022-12-05T07:51:25.746Z,100853.94
2022-12-05T07:53:54.383Z,100834.34
2022-12-05T07:56:24.722Z,100836.09
2022-12-05T07:58:54.774Z,100845.91
2022-12-05T08:02:03.846Z,100884.56
2022-12-05T08:04:33.135Z,100870.50
2022-12-05T08:07:04.367Z,100858.19
2022-12-05T08:09:49.703Z,100857.22
2022-12-05T08:12:25.977Z,100863.28
2022-12-05T08:15:19.512Z,100871.50
2022-12-05T08:18:07.910Z,100909.03
2022-12-05T08:20:40.137Z,100890.56
2022-12-05T08:23:10.969Z,100918.22
2022-12-05T08:25:45.378Z,100867.06
2022-12-05T08:28:15.665Z,100869.56
2022-12-05T08:30:46.456Z,100895.84
2022-12-05T08:33:25.111Z,100920.09
2022-12-05T08:35:57.101Z,100900.47
2022-12-05T08:38:27.965Z,100922.19
2022-12-05T08:40:57.017Z,100883.03
2022-12-05T08:43:27.119Z,100892.25
2022-12-05T08:46:01.314Z,100890.63
2022-12-05T08:48:37.072Z,100946.09
2022-12-05T08:51:09.608Z,100902.38
2022-12-05T08:56:45.454Z,100905.34
2022-12-05T08:59:14.495Z,100919.63
2022-12-05T09:01:44.193Z,100943.31
2022-12-05T09:04:15.208Z,100928.78
2022-12-05T09:06:48.093Z,100911.50
2022-12-05T09:09:17.239Z,100943.41
2022-12-05T09:11:51.899Z,100939.16
2022-12-05T09:14:23.340Z,100938.63
2022-12-05T09:16:53.614Z,100923.19
2022-12-05T09:19:27.714Z,100942.31
2022-12-05T09:21:58.654Z,100918.94
2022-12-05T09:24:30.456Z,100913.03
2022-12-05T09:26:58.617Z,100934.09
2022-12-05T09:29:30.678Z,100959.09
2022-12-05T09:31:59.867Z,100942.31
2022-12-05T09:34:31.145Z,100938.22
2022-12-05T09:37:16.631Z,100934.09
2022-12-05T09:39:51.321Z,100952.19
2022-12-05T09:42:36.938Z,100972.25
2022-12-05T09:45:15.522Z,100922.91
2022-12-05T09:47:51.153Z,100956.78
2022-12-05T09:50:33.363Z,100941.31
2022-12-05T09:53:10.701Z,100959.69
2022-12-05T09:55:46.679Z,100940.97
2022-12-05T09:58:23.790Z,100927.53
2022-12-05T10:01:06.277Z,100956.13
2022-12-05T10:03:49.074Z,100941.97
2022-12-05T10:06:27.623Z,100973.22
2022-12-05T10:09:22.076Z,100935.25
2022-12-05T10:12:00.755Z,100958.47
2022-12-05T10:14:37.864Z,100942.66
2022-12-05T10:17:17.135Z,100958.13
2022-12-05T10:19:49.279Z,100961.78
2022-12-05T10:22:25.201Z,100944.66
2022-12-05T10:25:01.331Z,100984.25
2022-12-05T10:27:39.995Z,100948.59
2022-12-05T10:30:18.987Z,100941.03
2022-12-05T10:33:04.999Z,100926.41
2022-12-05T10:35:39.980Z,100954.84
2022-12-05T10:38:16.548Z,100941.69
2022-12-05T10:40:52.408Z,100928.03
2022-12-05T10:43:35.496Z,100956.50
2022-12-05T10:46:07.256Z,100954.34
2022-12-05T10:48:39.617Z,100950.25
2022-12-05T10:51:12.844Z,100975.25
2022-12-05T10:53:53.642Z,100968.03
2022-12-05T10:56:51.766Z,100933.16
2022-12-05T10:59:22.487Z,100928.91
2022-12-05T11:01:57.921Z,100941.38
2022-12-05T11:04:31.135Z,100981.56
2022-12-05T11:07:15.985Z,100946.69
2022-12-05T11:10:26.168Z,100922.03
2022-12-05T11:13:16.249Z,100989.63
2022-12-05T11:18:50.806Z,100954.47
2022-12-05T11:21:21.042Z,100979.94
2022-12-05T11:23:50.246Z,100966.13
2022-12-05T11:26:21.543Z,100938.84
2022-12-05T11:28:51.077Z,100955.78
2022-12-05T11:31:34.393Z,100975.69
2022-12-05T11:34:11.898Z,100947.75
2022-12-05T11:36:44.322Z,100929.31
2022-12-05T11:39:14.424Z,100934.94
2022-12-05T11:41:56.909Z,100982.59
2022-12-05T11:44:50.923Z,100938.69
2022-12-05T11:50:41.869Z,100928.69
2022-12-05T11:57:29.315Z,100922.47
2022-12-05T12:00:45.447Z,100921.63
2022-12-05T12:03:57.838Z,100914.91
2022-12-05T12:06:30.927Z,100915.75
2022-12-05T12:09:33.296Z,100931.34
2022-12-05T12:12:07.802Z,100957.94
2022-12-05T12:17:46.290Z,100920.34
2022-12-05T12:20:47.874Z,100928.22
2022-12-05T12:23:42.953Z,100958.81
2022-12-05T12:26:16.964Z,100922.81
2022-12-05T12:28:56.140Z,100929.38
2022-12-05T12:31:37.081Z,100962.13
2022-12-05T12:34:23.060Z,100942.56
2022-12-05T12:36:57.553Z,100966.91
2022-12-05T12:39:36.710Z,100940.25
2022-12-05T12:42:22.426Z,100919.56
2022-12-05T12:44:59.612Z,100972.19
2022-12-05T12:47:42.216Z,100930.94
2022-12-05T12:50:19.220Z,100947.19
2022-12-05T12:53:15.774Z,100922.19
2022-12-05T12:55:51.185Z,100928.25
2022-12-05T12:58:37.464Z,100957.81
2022-12-05T13:01:15.121Z,100951.41
2022-12-05T13:03:51.704Z,100944.22
2022-12-05T13:06:24.964Z,100981.53
2022-12-05T13:08:58.834Z,100970.34
2022-12-05T13:11:30.538Z,100918.94
2022-12-05T13:14:04.957Z,100969.88
2022-12-05T13:16:41.108Z,100941.91
2022-12-05T13:19:27.459Z,100935.88
2022-12-05T13:21:58.597Z,100914.97
2022-12-05T13:24:30.863Z,100968.88
2022-12-05T13:27:01.386Z,100941.94
2022-12-05T13:29:35.376Z,100943.75
2022-12-05T13:32:05.859Z,100974.13
2022-12-05T13:34:55.564Z,100948.34
2022-12-05T13:37:44.053Z,100970.88
2022-12-05T13:40:49.895Z,100923.22
2022-12-05T13:43:20.557Z,100922.53
2022-12-05T13:46:06.679Z,100982.53
2022-12-05T13:48:38.537Z,100949.69
2022-12-05T13:51:10.414Z,100957.38
2022-12-05T13:53:43.658Z,100954.59
2022-12-05T13:56:28.751Z,100994.38
2022-12-05T13:58:58.027Z,100954.28
2022-12-05T14:01:55.937Z,100964.75
2022-12-05T14:04:51.110Z,100932.72
2022-12-05T14:07:39.365Z,100987.63
2022-12-05T14:10:09.233Z,100936.34
2022-12-05T14:12:55.121Z,100996.81
2022-12-05T14:15:33.850Z,100947.16
2022-12-05T14:18:06.528Z,100954.38
2022-12-05T14:21:01.754Z,100996.47
2022-12-05T14:23:46.249Z,100971.50
2022-12-05T14:26:33.118Z,100982.69
2022-12-05T14:29:18.008Z,100991.25
2022-12-05T14:32:04.428Z,100989.91
2022-12-05T14:34:35.529Z,100979.06
2022-12-05T14:37:06.293Z,100960.66
2022-12-05T14:39:42.214Z,100984.50
2022-12-05T14:42:28.193Z,100973.84
2022-12-05T14:45:00.309Z,100975.31
2022-12-05T14:47:31.786Z,100961.84
2022-12-05T14:50:04.471Z,100958.09
2022-12-05T14:52:34.460Z,100993.91
2022-12-05T14:55:07.946Z,100963.34
2022-12-05T14:57:39.325Z,100971.56
2022-12-05T15:00:20.926Z,101000.31
2022-12-05T15:02:52.348Z,101004.94
2022-12-05T15:05:25.710Z,100961.22
2022-12-05T15:07:55.133Z,101001.81
2022-12-05T15:10:25.901Z,100979.78
2022-12-05T15:12:58.412Z,100987.69
2022-12-05T15:15:37.639Z,101013.31
2022-12-05T15:18:16.040Z,100996.56
2022-12-05T15:20:50.550Z,100992.59
2022-12-05T15:23:44.081Z,101013.63
2022-12-05T15:26:45.461Z,100976.81
2022-12-05T15:29:10.882Z,100984.38
2022-12-05T15:31:47.619Z,100995.22
2022-12-05T15:34:19.801Z,100992.09
2022-12-05T15:36:52.455Z,101004.94
2022-12-05T15:39:26.227Z,100987.00
2022-12-05T15:41:55.069Z,101012.16
2022-12-05T15:44:28.193Z,101004.91
2022-12-05T15:47:00.306Z,101004.75
2022-12-05T15:49:30.541Z,101023.66
2022-12-05T15:52:07.334Z,101013.47
2022-12-05T15:54:39.674Z,101025.63
2022-12-05T15:57:15.163Z,101024.16
2022-12-05T15:59:47.869Z,100993.25
2022-12-05T16:02:23.271Z,101012.78
2022-12-05T16:04:55.383Z,101025.78
2022-12-05T16:07:25.030Z,101026.13
2022-12-05T16:09:58.008Z,101016.59
2022-12-05T16:12:32.617Z,101046.53
2022-12-05T16:15:06.195Z,101025.63
2022-12-05T16:17:44.297Z,100988.34
2022-12-05T16:20:25.706Z,101023.16
2022-12-05T16:22:56.455Z,101056.38
2022-12-05T16:25:26.867Z,101022.50
2022-12-05T16:28:13.239Z,101009.38
2022-12-05T16:30:41.837Z,101032.53
2022-12-05T16:33:16.454Z,101019.88
2022-12-05T16:35:47.194Z,101036.97
2022-12-05T16:38:20.005Z,101053.56
2022-12-05T16:40:57.316Z,101017.41
2022-12-05T16:43:29.429Z,101026.78
2022-12-05T16:46:00.377Z,101013.81
2022-12-05T16:48:32.025Z,101032.22
2022-12-05T16:51:18.863Z,101035.66
2022-12-05T16:53:49.344Z,101029.06
2022-12-05T16:56:21.563Z,101051.44
2022-12-05T16:58:49.922Z,101034.84
2022-12-05T17:01:20.451Z,101010.00
2022-12-05T17:03:50.380Z,101032.53
2022-12-05T17:06:19.902Z,101038.97
2022-12-05T17:08:47.965Z,101033.19
2022-12-05T17:11:18.841Z,101041.94
2022-12-05T17:13:48.815Z,101031.38
2022-12-05T17:16:17.342Z,101052.91
2022-12-05T17:18:45.245Z,101036.16
2022-12-05T17:21:17.855Z,101052.91
2022-12-05T17:23:48.253Z,101033.03
2022-12-05T17:26:21.015Z,101046.34
2022-12-05T17:28:50.614Z,101049.47
2022-12-05T17:31:21.162Z,101044.56
2022-12-05T17:33:50.497Z,101035.66
2022-12-05T17:36:21.127Z,101041.25
2022-12-05T17:38:49.917Z,101031.56
2022-12-05T17:41:19.757Z,101029.06
2022-12-05T17:43:48.161Z,101036.34
2022-12-05T17:46:19.060Z,101043.88
2022-12-05T17:48:47.063Z,101050.13
2022-12-05T17:51:16.046Z,101063.44
2022-12-05T17:53:45.600Z,101064.59
2022-12-05T17:56:14.559Z,101072.63
2022-12-05T17:58:43.038Z,101081.34
2022-12-05T18:01:15.069Z,101044.53
2022-12-05T18:03:43.576Z,101073.13
2022-12-05T18:06:11.701Z,101080.03
2022-12-05T18:08:40.155Z,101073.13
2022-12-05T18:11:10.040Z,101081.34
2022-12-05T18:13:37.916Z,101069.84
2022-12-05T18:16:07.023Z,101037.44
2022-12-05T18:18:35.059Z,101059.97
2022-12-05T18:21:08.518Z,101083.34
2022-12-05T18:23:38.116Z,101086.94
2022-12-05T18:26:07.410Z,101088.59
2022-12-05T18:28:39.171Z,101088.59
2022-12-05T18:31:09.833Z,101069.34
2022-12-05T18:33:38.364Z,101086.44
2022-12-05T18:36:09.245Z,101095.19
2022-12-05T18:38:37.789Z,101094.84
2022-12-05T18:41:06.997Z,101092.34
2022-12-05T18:43:37.403Z,101092.22
2022-12-05T18:46:05.836Z,101088.59
2022-12-05T18:48:41.740Z,101101.72
2022-12-05T18:51:15.637Z,101074.78
2022-12-05T18:53:51.506Z,101100.25
2022-12-05T18:56:23.198Z,101103.88
2022-12-05T18:58:57.658Z,101102.06
2022-12-05T19:01:28.037Z,101104.03
2022-12-05T19:03:57.171Z,101073.75
2022-12-05T19:06:27.913Z,101111.09
2022-12-05T19:08:57.209Z,101114.72
2022-12-05T19:11:27.212Z,101107.66
2022-12-05T19:13:58.713Z,101110.13
2022-12-05T19:16:28.532Z,101082.66
2022-12-05T19:18:58.761Z,101063.72
2022-12-05T19:21:28.349Z,101076.88
2022-12-05T19:23:57.901Z,101071.47
2022-12-05T19:26:26.730Z,101103.38
2022-12-05T19:28:55.230Z,101067.84
2022-12-05T19:31:26.287Z,101110.28
2022-12-05T19:33:57.276Z,101109.28
2022-12-05T19:36:26.825Z,101061.78
2022-12-05T19:38:56.787Z,101075.09
2022-12-05T19:41:26.050Z,101113.41
2022-12-05T19:43:54.985Z,101114.88
2022-12-05T19:46:26.061Z,101112.75
2022-12-05T19:48:54.721Z,101074.09
2022-12-05T19:51:22.723Z,101076.09
2022-12-05T19:53:51.555Z,101096.00
2022-12-05T19:56:21.684Z,101101.72
2022-12-05T19:58:51.494Z,101079.69
2022-12-05T20:01:22.566Z,101076.72
2022-12-05T20:03:54.931Z,101065.56
2022-12-05T20:06:23.812Z,101098.75
2022-12-05T20:08:55.046Z,101120.81
2022-12-05T20:11:25.078Z,101089.72
2022-12-05T20:13:54.987Z,101095.19
2022-12-05T20:16:26.697Z,101121.13
2022-12-05T20:18:58.632Z,101115.88
2022-12-05T20:21:28.233Z,101096.16
2022-12-05T20:23:56.474Z,101114.25
2022-12-05T20:26:26.533Z,101107.50
2022-12-05T20:28:56.332Z,101084.31
2022-12-05T20:31:26.598Z,101121.16
2022-12-05T20:33:56.404Z,101116.56
2022-12-05T20:36:27.262Z,101102.59
2022-12-05T20:38:59.034Z,101083.16
2022-12-05T20:41:27.753Z,101114.09
2022-12-05T20:43:57.561Z,101114.59
2022-12-05T20:46:26.753Z,101114.59
2022-12-05T20:48:57.362Z,101116.41
2022-12-05T20:51:27.717Z,101107.69
2022-12-05T20:53:56.846Z,101084.66
2022-12-05T20:56:27.356Z,101105.38
2022-12-05T20:58:57.626Z,101105.38
2022-12-05T21:01:28.067Z,101064.94
2022-12-05T21:03:57.286Z,101095.19
2022-12-05T21:06:26.647Z,101101.44
2022-12-05T21:08:55.676Z,101073.47
2022-12-05T21:11:25.534Z,101091.22
2022-12-05T21:13:55.868Z,101096.31
2022-12-05T21:16:24.483Z,101106.03
2022-12-05T21:18:53.522Z,101094.50
2022-12-05T21:21:25.041Z,101098.81
2022-12-05T21:23:54.970Z,101102.41
2022-12-05T21:26:23.374Z,101092.06
2022-12-05T21:28:51.652Z,101080.72
2022-12-05T21:31:22.239Z,101097.69
2022-12-05T21:33:51.821Z,101089.75
2022-12-05T21:36:20.764Z,101069.53
2022-12-05T21:38:55.596Z,101095.50
2022-12-05T21:41:23.881Z,101102.91
2022-12-05T21:43:55.041Z,101106.38
2022-12-05T21:46:24.223Z,101079.56
2022-12-05T21:48:52.270Z,101087.28
2022-12-05T21:51:20.330Z,101091.59
2022-12-05T21:53:49.969Z,101092.25
2022-12-05T21:56:22.649Z,101101.78
2022-12-05T21:58:51.477Z,101084.97
2022-12-05T22:01:21.245Z,101108.34
2022-12-05T22:03:52.800Z,101099.50
2022-12-05T22:06:20.865Z,101108.34
2022-12-05T22:08:50.228Z,101098.81
2022-12-05T22:11:20.107Z,101119.03
2022-12-05T22:13:48.842Z,101122.16
2022-12-05T22:16:19.096Z,101111.63
2022-12-05T22:18:48.596Z,101109.81
2022-12-05T22:21:19.076Z,101118.88
2022-12-05T22:23:47.970Z,101081.22
2022-12-05T22:26:18.650Z,101112.13
2022-12-05T22:28:47.181Z,101123.31
2022-12-05T22:31:16.468Z,101126.75
2022-12-05T22:33:45.136Z,101092.56
2022-12-05T22:36:14.961Z,101115.22
2022-12-05T22:38:44.533Z,101109.97
2022-12-05T22:41:15.825Z,101122.00
2022-12-05T22:43:46.821Z,101117.38
2022-12-05T22:46:18.308Z,101063.94
2022-12-05T22:48:46.887Z,101110.31
2022-12-05T22:51:16.123Z,101111.13
2022-12-05T22:53:44.027Z,101111.31
2022-12-05T22:56:14.102Z,101110.50
2022-12-05T22:58:44.984Z,101102.41
2022-12-05T23:01:15.098Z,101092.25
2022-12-05T23:03:44.789Z,101078.75
2022-12-05T23:06:15.178Z,101106.69
2022-12-05T23:08:44.944Z,101115.41
2022-12-05T23:11:13.895Z,101111.31
2022-12-05T23:13:41.850Z,101104.38
2022-12-05T23:16:14.561Z,101091.88
2022-12-05T23:18:49.678Z,101092.56
2022-12-05T23:21:20.773Z,101107.00
2022-12-05T23:23:49.870Z,101106.00
2022-12-05T23:26:19.363Z,101108.00
2022-12-05T23:28:47.563Z,101090.25
2022-12-05T23:31:17.783Z,101073.97
2022-12-05T23:33:48.518Z,101097.78
2022-12-05T23:36:19.800Z,101096.47
2022-12-05T23:38:48.037Z,101098.16
2022-12-05T23:41:18.634Z,101107.66
2022-12-05T23:43:47.771Z,101078.72
2022-12-05T23:46:19.231Z,101058.53
2022-12-05T23:48:48.289Z,101089.25
2022-12-05T23:51:18.637Z,101099.28
2022-12-05T23:53:48.360Z,101097.47
2022-12-05T23:56:18.838Z,101063.94
2022-12-05T23:58:48.315Z,101099.28
